sensor_id;sensor_type;location;lat;lon;timestamp;temperature;humidity
47514;DHT22;33951;51.988;5.910;2023-03-23T00:01:28;11.70;99.90
47514;DHT22;33951;51.988;5.910;2023-03-23T00:03:56;11.60;99.90
47514;DHT22;33951;51.988;5.910;2023-03-23T00:06:24;11.60;99.90
47514;DHT22;33951;51.988;5.910;2023-03-23T00:08:52;11.70;99.90
47514;DHT22;33951;51.988;5.910;2023-03-23T00:11:32;11.80;99.90
47514;DHT22;33951;51.988;5.910;2023-03-23T00:14:00;11.70;99.90
47514;DHT22;33951;51.988;5.910;2023-03-23T00:16:35;11.70;99.90
47514;DHT22;33951;51.988;5.910;2023-03-23T00:19:10;11.60;99.90
47514;DHT22;33951;51.988;5.910;2023-03-23T00:21:39;11.60;99.90
47514;DHT22;33951;51.988;5.910;2023-03-23T00:24:17;11.60;99.90
47514;DHT22;33951;51.988;5.910;2023-03-23T00:26:45;11.60;99.90
47514;DHT22;33951;51.988;5.910;2023-03-23T00:29:14;11.60;99.90
47514;DHT22;33951;51.988;5.910;2023-03-23T00:31:44;11.70;99.90
47514;DHT22;33951;51.988;5.910;2023-03-23T00:34:15;11.70;99.90
47514;DHT22;33951;51.988;5.910;2023-03-23T00:36:45;11.70;99.90
47514;DHT22;33951;51.988;5.910;2023-03-23T00:39:14;11.70;99.90
47514;DHT22;33951;51.988;5.910;2023-03-23T00:41:42;11.70;99.90
47514;DHT22;33951;51.988;5.910;2023-03-23T00:44:08;11.70;99.90
47514;DHT22;33951;51.988;5.910;2023-03-23T00:46:36;11.70;99.90
47514;DHT22;33951;51.988;5.910;2023-03-23T00:49:13;11.70;99.90
47514;DHT22;33951;51.988;5.910;2023-03-23T00:51:41;11.70;99.90
47514;DHT22;33951;51.988;5.910;2023-03-23T00:54:11;11.70;99.90
47514;DHT22;33951;51.988;5.910;2023-03-23T00:56:40;11.70;99.90
47514;DHT22;33951;51.988;5.910;2023-03-23T00:59:06;11.80;99.90
47514;DHT22;33951;51.988;5.910;2023-03-23T05:01:51;12.40;99.90
47514;DHT22;33951;51.988;5.910;2023-03-23T05:04:20;12.40;99.90
47514;DHT22;33951;51.988;5.910;2023-03-23T05:06:46;12.50;99.90
47514;DHT22;33951;51.988;5.910;2023-03-23T05:09:11;12.40;99.90
47514;DHT22;33951;51.988;5.910;2023-03-23T05:11:37;12.40;99.90
47514;DHT22;33951;51.988;5.910;2023-03-23T05:14:04;12.30;99.90
47514;DHT22;33951;51.988;5.910;2023-03-23T05:16:33;12.40;99.90
47514;DHT22;33951;51.988;5.910;2023-03-23T05:19:04;12.30;99.90
47514;DHT22;33951;51.988;5.910;2023-03-23T05:21:32;12.30;99.90
47514;DHT22;33951;51.988;5.910;2023-03-23T05:24:00;12.40;99.90
47514;DHT22;33951;51.988;5.910;2023-03-23T05:26:26;12.30;99.90
47514;DHT22;33951;51.988;5.910;2023-03-23T05:29:03;12.30;99.90
47514;DHT22;33951;51.988;5.910;2023-03-23T05:31:28;12.40;99.90
47514;DHT22;33951;51.988;5.910;2023-03-23T05:33:54;12.40;99.90
47514;DHT22;33951;51.988;5.910;2023-03-23T05:36:20;12.30;99.90
47514;DHT22;33951;51.988;5.910;2023-03-23T05:38:45;12.30;99.90
47514;DHT22;33951;51.988;5.910;2023-03-23T05:41:14;12.30;99.90
47514;DHT22;33951;51.988;5.910;2023-03-23T05:43:39;12.30;99.90
47514;DHT22;33951;51.988;5.910;2023-03-23T05:46:05;12.30;99.90
47514;DHT22;33951;51.988;5.910;2023-03-23T05:48:32;12.30;99.90
47514;DHT22;33951;51.988;5.910;2023-03-23T05:51:00;12.30;99.90
47514;DHT22;33951;51.988;5.910;2023-03-23T05:53:29;12.40;99.90
47514;DHT22;33951;51.988;5.910;2023-03-23T05:56:02;12.30;99.90
47514;DHT22;33951;51.988;5.910;2023-03-23T05:58:29;12.30;99.90
47514;DHT22;33951;51.988;5.910;2023-03-23T06:00:54;12.20;99.90
47514;DHT22;33951;51.988;5.910;2023-03-23T06:03:25;12.30;99.90
47514;DHT22;33951;51.988;5.910;2023-03-23T06:05:51;12.30;99.90
47514;DHT22;33951;51.988;5.910;2023-03-23T06:08:17;12.30;99.90
47514;DHT22;33951;51.988;5.910;2023-03-23T06:10:43;12.30;99.90
47514;DHT22;33951;51.988;5.910;2023-03-23T06:13:09;12.30;99.90
47514;DHT22;33951;51.988;5.910;2023-03-23T06:15:34;12.30;99.90
47514;DHT22;33951;51.988;5.910;2023-03-23T06:18:07;12.30;99.90
47514;DHT22;33951;51.988;5.910;2023-03-23T06:20:33;12.30;99.90
47514;DHT22;33951;51.988;5.910;2023-03-23T06:23:00;12.30;99.90
47514;DHT22;33951;51.988;5.910;2023-03-23T06:25:28;12.30;99.90
47514;DHT22;33951;51.988;5.910;2023-03-23T06:27:56;12.30;99.90
47514;DHT22;33951;51.988;5.910;2023-03-23T06:30:28;12.30;99.90
47514;DHT22;33951;51.988;5.910;2023-03-23T06:32:55;12.40;99.90
47514;DHT22;33951;51.988;5.910;2023-03-23T06:35:22;12.40;99.90
47514;DHT22;33951;51.988;5.910;2023-03-23T06:37:48;12.50;99.90
47514;DHT22;33951;51.988;5.910;2023-03-23T06:40:16;12.40;99.90
47514;DHT22;33951;51.988;5.910;2023-03-23T06:42:47;12.40;99.90
47514;DHT22;33951;51.988;5.910;2023-03-23T06:45:15;12.40;99.90
47514;DHT22;33951;51.988;5.910;2023-03-23T06:47:47;12.40;99.90
47514;DHT22;33951;51.988;5.910;2023-03-23T06:50:15;12.40;99.90
47514;DHT22;33951;51.988;5.910;2023-03-23T06:52:48;12.40;99.90
47514;DHT22;33951;51.988;5.910;2023-03-23T06:55:19;12.40;99.90
47514;DHT22;33951;51.988;5.910;2023-03-23T06:57:48;12.40;99.90
47514;DHT22;33951;51.988;5.910;2023-03-23T07:00:17;12.40;99.90
47514;DHT22;33951;51.988;5.910;2023-03-23T07:02:45;12.40;99.90
47514;DHT22;33951;51.988;5.910;2023-03-23T07:05:17;12.40;99.90
47514;DHT22;33951;51.988;5.910;2023-03-23T07:07:49;12.40;99.90
47514;DHT22;33951;51.988;5.910;2023-03-23T07:10:14;12.40;99.90
47514;DHT22;33951;51.988;5.910;2023-03-23T07:12:45;12.40;99.90
47514;DHT22;33951;51.988;5.910;2023-03-23T07:15:25;12.40;99.90
47514;DHT22;33951;51.988;5.910;2023-03-23T07:17:56;12.40;99.90
47514;DHT22;33951;51.988;5.910;2023-03-23T07:20:46;12.40;99.90
47514;DHT22;33951;51.988;5.910;2023-03-23T07:23:14;12.40;99.90
47514;DHT22;33951;51.988;5.910;2023-03-23T07:25:43;12.40;99.90
47514;DHT22;33951;51.988;5.910;2023-03-23T07:28:10;12.40;99.90
47514;DHT22;33951;51.988;5.910;2023-03-23T07:30:38;12.50;99.90
47514;DHT22;33951;51.988;5.910;2023-03-23T07:33:06;12.40;99.90
47514;DHT22;33951;51.988;5.910;2023-03-23T07:35:33;12.40;99.90
47514;DHT22;33951;51.988;5.910;2023-03-23T07:38:04;12.40;99.90
47514;DHT22;33951;51.988;5.910;2023-03-23T07:40:42;12.50;99.90
47514;DHT22;33951;51.988;5.910;2023-03-23T07:43:11;12.60;99.90
47514;DHT22;33951;51.988;5.910;2023-03-23T07:45:36;12.50;99.90
47514;DHT22;33951;51.988;5.910;2023-03-23T07:48:05;12.40;99.90
47514;DHT22;33951;51.988;5.910;2023-03-23T07:50:30;12.30;99.90
47514;DHT22;33951;51.988;5.910;2023-03-23T07:52:58;12.30;99.90
47514;DHT22;33951;51.988;5.910;2023-03-23T07:55:24;12.20;99.90
47514;DHT22;33951;51.988;5.910;2023-03-23T07:57:53;12.20;99.90
47514;DHT22;33951;51.988;5.910;2023-03-23T08:00:20;12.20;99.90
47514;DHT22;33951;51.988;5.910;2023-03-23T08:02:56;12.10;99.90
47514;DHT22;33951;51.988;5.910;2023-03-23T08:05:26;12.00;99.90
47514;DHT22;33951;51.988;5.910;2023-03-23T08:07:58;11.90;99.90
47514;DHT22;33951;51.988;5.910;2023-03-23T08:10:24;11.90;99.90
47514;DHT22;33951;51.988;5.910;2023-03-23T08:13:03;11.80;99.90
47514;DHT22;33951;51.988;5.910;2023-03-23T08:15:35;11.80;99.90
47514;DHT22;33951;51.988;5.910;2023-03-23T08:18:07;11.80;99.90
47514;DHT22;33951;51.988;5.910;2023-03-23T08:20:40;11.90;99.90
47514;DHT22;33951;51.988;5.910;2023-03-23T08:23:09;11.90;99.90
47514;DHT22;33951;51.988;5.910;2023-03-23T08:25:43;11.90;99.90
47514;DHT22;33951;51.988;5.910;2023-03-23T08:28:11;11.90;99.90
47514;DHT22;33951;51.988;5.910;2023-03-23T08:30:51;11.90;99.90
47514;DHT22;33951;51.988;5.910;2023-03-23T08:33:19;11.80;99.90
47514;DHT22;33951;51.988;5.910;2023-03-23T08:35:55;11.80;99.90
47514;DHT22;33951;51.988;5.910;2023-03-23T08:38:22;11.80;99.90
47514;DHT22;33951;51.988;5.910;2023-03-23T08:40:47;11.80;99.90
47514;DHT22;33951;51.988;5.910;2023-03-23T08:43:16;11.80;99.90
47514;DHT22;33951;51.988;5.910;2023-03-23T08:45:42;11.80;99.90
47514;DHT22;33951;51.988;5.910;2023-03-23T08:48:08;12.00;99.90
47514;DHT22;33951;51.988;5.910;2023-03-23T08:50:34;11.90;99.90
47514;DHT22;33951;51.988;5.910;2023-03-23T08:53:03;11.90;99.90
47514;DHT22;33951;51.988;5.910;2023-03-23T08:55:29;11.80;99.90
47514;DHT22;33951;51.988;5.910;2023-03-23T08:57:55;11.80;99.90
47514;DHT22;33951;51.988;5.910;2023-03-23T09:00:24;11.90;99.90
47514;DHT22;33951;51.988;5.910;2023-03-23T09:02:54;11.80;99.90
47514;DHT22;33951;51.988;5.910;2023-03-23T09:05:23;11.90;99.90
47514;DHT22;33951;51.988;5.910;2023-03-23T09:07:52;11.80;99.90
47514;DHT22;33951;51.988;5.910;2023-03-23T09:10:22;11.80;99.90
47514;DHT22;33951;51.988;5.910;2023-03-23T09:12:51;11.90;99.90
47514;DHT22;33951;51.988;5.910;2023-03-23T09:15:23;12.00;99.90
47514;DHT22;33951;51.988;5.910;2023-03-23T09:17:52;12.00;99.90
47514;DHT22;33951;51.988;5.910;2023-03-23T09:20:26;12.00;99.90
47514;DHT22;33951;51.988;5.910;2023-03-23T09:22:54;12.10;99.90
47514;DHT22;33951;51.988;5.910;2023-03-23T09:25:23;12.10;99.90
47514;DHT22;33951;51.988;5.910;2023-03-23T09:27:57;12.10;99.90
47514;DHT22;33951;51.988;5.910;2023-03-23T09:30:27;12.20;99.90
47514;DHT22;33951;51.988;5.910;2023-03-23T09:32:54;12.20;99.90
47514;DHT22;33951;51.988;5.910;2023-03-23T09:35:23;12.20;99.90
47514;DHT22;33951;51.988;5.910;2023-03-23T09:37:51;12.10;99.90
47514;DHT22;33951;51.988;5.910;2023-03-23T09:40:23;12.20;99.90
47514;DHT22;33951;51.988;5.910;2023-03-23T09:46:29;12.40;99.90
47514;DHT22;33951;51.988;5.910;2023-03-23T09:49:10;12.30;99.90
47514;DHT22;33951;51.988;5.910;2023-03-23T09:51:58;12.30;99.90
47514;DHT22;33951;51.988;5.910;2023-03-23T09:54:26;12.30;99.90
47514;DHT22;33951;51.988;5.910;2023-03-23T09:56:58;12.50;99.90
47514;DHT22;33951;51.988;5.910;2023-03-23T10:02:24;12.60;99.90
47514;DHT22;33951;51.988;5.910;2023-03-23T10:04:52;12.70;99.90
47514;DHT22;33951;51.988;5.910;2023-03-23T10:07:24;12.70;99.90
47514;DHT22;33951;51.988;5.910;2023-03-23T10:10:00;12.90;99.90
47514;DHT22;33951;51.988;5.910;2023-03-23T10:12:50;12.90;99.90
47514;DHT22;33951;51.988;5.910;2023-03-23T10:15:21;12.90;99.90
47514;DHT22;33951;51.988;5.910;2023-03-23T10:18:17;13.00;99.90
47514;DHT22;33951;51.988;5.910;2023-03-23T10:21:01;13.00;99.90
47514;DHT22;33951;51.988;5.910;2023-03-23T10:29:19;13.40;99.90
47514;DHT22;33951;51.988;5.910;2023-03-23T10:32:01;13.40;99.90
47514;DHT22;33951;51.988;5.910;2023-03-23T10:34:54;13.40;99.90
47514;DHT22;33951;51.988;5.910;2023-03-23T10:37:26;13.60;99.90
47514;DHT22;33951;51.988;5.910;2023-03-23T10:39:57;13.80;99.90
47514;DHT22;33951;51.988;5.910;2023-03-23T10:42:34;14.00;99.90
47514;DHT22;33951;51.988;5.910;2023-03-23T10:45:29;14.10;99.90
47514;DHT22;33951;51.988;5.910;2023-03-23T10:48:02;14.40;99.90
47514;DHT22;33951;51.988;5.910;2023-03-23T10:50:31;14.30;99.90
47514;DHT22;33951;51.988;5.910;2023-03-23T10:52:59;14.60;99.90
47514;DHT22;33951;51.988;5.910;2023-03-23T10:55:35;14.60;99.90
47514;DHT22;33951;51.988;5.910;2023-03-23T10:58:25;14.60;99.90
47514;DHT22;33951;51.988;5.910;2023-03-23T11:00:54;14.70;99.90
47514;DHT22;33951;51.988;5.910;2023-03-23T11:03:35;14.70;99.90
47514;DHT22;33951;51.988;5.910;2023-03-23T11:06:06;14.80;99.90
47514;DHT22;33951;51.988;5.910;2023-03-23T11:08:35;14.70;99.90
47514;DHT22;33951;51.988;5.910;2023-03-23T11:13:33;14.30;99.90
47514;DHT22;33951;51.988;5.910;2023-03-23T11:16:00;14.60;99.90
47514;DHT22;33951;51.988;5.910;2023-03-23T11:18:27;14.80;99.90
47514;DHT22;33951;51.988;5.910;2023-03-23T11:21:00;15.00;99.90
47514;DHT22;33951;51.988;5.910;2023-03-23T11:23:32;15.40;99.90
47514;DHT22;33951;51.988;5.910;2023-03-23T11:26:25;15.30;99.90
47514;DHT22;33951;51.988;5.910;2023-03-23T11:29:19;15.70;99.90
47514;DHT22;33951;51.988;5.910;2023-03-23T11:31:49;16.00;99.90
47514;DHT22;33951;51.988;5.910;2023-03-23T11:34:35;16.00;99.90
47514;DHT22;33951;51.988;5.910;2023-03-23T11:37:41;16.10;99.90
47514;DHT22;33951;51.988;5.910;2023-03-23T11:42:42;16.10;99.90
47514;DHT22;33951;51.988;5.910;2023-03-23T11:45:19;16.10;99.90
47514;DHT22;33951;51.988;5.910;2023-03-23T11:53:50;15.10;99.90
47514;DHT22;33951;51.988;5.910;2023-03-23T11:56:30;15.00;99.90
47514;DHT22;33951;51.988;5.910;2023-03-23T11:58:59;14.90;99.90
47514;DHT22;33951;51.988;5.910;2023-03-23T12:01:47;14.70;99.90
47514;DHT22;33951;51.988;5.910;2023-03-23T12:13:25;14.70;99.90
47514;DHT22;33951;51.988;5.910;2023-03-23T12:16:14;14.60;99.90
47514;DHT22;33951;51.988;5.910;2023-03-23T12:18:54;14.40;99.90
47514;DHT22;33951;51.988;5.910;2023-03-23T12:21:44;14.30;99.90
47514;DHT22;33951;51.988;5.910;2023-03-23T12:24:36;14.40;99.90
47514;DHT22;33951;51.988;5.910;2023-03-23T12:27:12;14.50;99.90
47514;DHT22;33951;51.988;5.910;2023-03-23T12:30:29;14.60;99.90
47514;DHT22;33951;51.988;5.910;2023-03-23T12:33:01;14.50;99.90
47514;DHT22;33951;51.988;5.910;2023-03-23T12:41:57;14.60;99.90
47514;DHT22;33951;51.988;5.910;2023-03-23T12:44:27;14.70;99.90
47514;DHT22;33951;51.988;5.910;2023-03-23T12:47:07;14.50;99.90
47514;DHT22;33951;51.988;5.910;2023-03-23T12:49:58;14.50;99.90
47514;DHT22;33951;51.988;5.910;2023-03-23T12:52:33;14.60;99.90
47514;DHT22;33951;51.988;5.910;2023-03-23T12:55:07;14.50;99.90
47514;DHT22;33951;51.988;5.910;2023-03-23T12:57:54;14.50;99.90
47514;DHT22;33951;51.988;5.910;2023-03-23T13:00:34;14.40;99.90
47514;DHT22;33951;51.988;5.910;2023-03-23T13:03:19;14.20;99.90
47514;DHT22;33951;51.988;5.910;2023-03-23T13:09:19;13.20;99.90
47514;DHT22;33951;51.988;5.910;2023-03-23T13:11:47;12.70;99.90
47514;DHT22;33951;51.988;5.910;2023-03-23T13:22:55;12.50;99.90
47514;DHT22;33951;51.988;5.910;2023-03-23T13:25:32;12.40;99.90
47514;DHT22;33951;51.988;5.910;2023-03-23T13:28:04;12.30;99.90
47514;DHT22;33951;51.988;5.910;2023-03-23T13:30:30;12.20;99.90
47514;DHT22;33951;51.988;5.910;2023-03-23T13:33:04;12.20;99.90
47514;DHT22;33951;51.988;5.910;2023-03-23T13:35:38;12.60;99.90
47514;DHT22;33951;51.988;5.910;2023-03-23T13:38:18;13.00;99.90
47514;DHT22;33951;51.988;5.910;2023-03-23T13:40:45;13.20;99.90
47514;DHT22;33951;51.988;5.910;2023-03-23T13:43:11;13.40;99.90
47514;DHT22;33951;51.988;5.910;2023-03-23T13:45:47;13.70;99.90
47514;DHT22;33951;51.988;5.910;2023-03-23T13:50:52;14.20;99.90
47514;DHT22;33951;51.988;5.910;2023-03-23T13:53:28;14.20;99.90
47514;DHT22;33951;51.988;5.910;2023-03-23T13:56:40;14.10;99.90
47514;DHT22;33951;51.988;5.910;2023-03-23T13:59:15;14.00;99.90
47514;DHT22;33951;51.988;5.910;2023-03-23T14:01:41;14.00;99.90
47514;DHT22;33951;51.988;5.910;2023-03-23T14:04:16;14.00;99.90
47514;DHT22;33951;51.988;5.910;2023-03-23T14:06:44;13.90;99.90
47514;DHT22;33951;51.988;5.910;2023-03-23T14:09:28;13.80;99.90
47514;DHT22;33951;51.988;5.910;2023-03-23T14:12:03;13.80;99.90
47514;DHT22;33951;51.988;5.910;2023-03-23T14:14:40;13.80;99.90
47514;DHT22;33951;51.988;5.910;2023-03-23T14:17:15;13.60;99.90
47514;DHT22;33951;51.988;5.910;2023-03-23T14:19:50;13.50;99.90
47514;DHT22;33951;51.988;5.910;2023-03-23T14:22:33;13.50;99.90
47514;DHT22;33951;51.988;5.910;2023-03-23T14:25:11;13.50;99.90
47514;DHT22;33951;51.988;5.910;2023-03-23T14:27:38;13.30;99.90
47514;DHT22;33951;51.988;5.910;2023-03-23T14:30:15;13.00;99.90
47514;DHT22;33951;51.988;5.910;2023-03-23T14:32:52;13.00;99.90
47514;DHT22;33951;51.988;5.910;2023-03-23T14:35:32;12.90;99.90
47514;DHT22;33951;51.988;5.910;2023-03-23T14:37:58;13.00;99.90
47514;DHT22;33951;51.988;5.910;2023-03-23T14:40:27;13.10;99.90
47514;DHT22;33951;51.988;5.910;2023-03-23T14:42:54;13.30;99.90
47514;DHT22;33951;51.988;5.910;2023-03-23T14:45:23;13.70;99.90
47514;DHT22;33951;51.988;5.910;2023-03-23T14:47:52;13.90;99.90
47514;DHT22;33951;51.988;5.910;2023-03-23T14:50:30;14.10;99.90
47514;DHT22;33951;51.988;5.910;2023-03-23T14:56:20;14.90;99.90
47514;DHT22;33951;51.988;5.910;2023-03-23T14:58:52;15.40;99.90
47514;DHT22;33951;51.988;5.910;2023-03-23T15:01:29;15.80;99.90
47514;DHT22;33951;51.988;5.910;2023-03-23T15:04:00;15.80;99.90
47514;DHT22;33951;51.988;5.910;2023-03-23T15:06:29;15.70;99.90
47514;DHT22;33951;51.988;5.910;2023-03-23T15:08:59;15.70;99.90
47514;DHT22;33951;51.988;5.910;2023-03-23T15:11:29;15.60;99.90
47514;DHT22;33951;51.988;5.910;2023-03-23T15:13:58;15.60;99.90
47514;DHT22;33951;51.988;5.910;2023-03-23T15:16:28;15.70;99.90
47514;DHT22;33951;51.988;5.910;2023-03-23T15:19:03;15.80;99.90
47514;DHT22;33951;51.988;5.910;2023-03-23T15:21:32;15.80;99.90
47514;DHT22;33951;51.988;5.910;2023-03-23T15:24:00;15.90;99.90
47514;DHT22;33951;51.988;5.910;2023-03-23T15:26:43;16.00;99.90
47514;DHT22;33951;51.988;5.910;2023-03-23T15:29:16;15.90;99.90
47514;DHT22;33951;51.988;5.910;2023-03-23T15:31:47;15.90;99.90
47514;DHT22;33951;51.988;5.910;2023-03-23T15:34:25;15.80;99.90
47514;DHT22;33951;51.988;5.910;2023-03-23T15:39:49;15.50;99.90
47514;DHT22;33951;51.988;5.910;2023-03-23T15:42:22;15.50;99.90
47514;DHT22;33951;51.988;5.910;2023-03-23T15:47:47;15.70;99.90
47514;DHT22;33951;51.988;5.910;2023-03-23T15:50:19;15.70;99.90
47514;DHT22;33951;51.988;5.910;2023-03-23T15:52:45;15.50;99.90
47514;DHT22;33951;51.988;5.910;2023-03-23T15:55:37;15.30;99.90
47514;DHT22;33951;51.988;5.910;2023-03-23T15:58:11;15.30;99.90
47514;DHT22;33951;51.988;5.910;2023-03-23T16:00:38;15.40;99.90
47514;DHT22;33951;51.988;5.910;2023-03-23T16:03:07;15.40;99.90
47514;DHT22;33951;51.988;5.910;2023-03-23T16:05:34;15.40;99.90
47514;DHT22;33951;51.988;5.910;2023-03-23T16:08:00;15.10;99.90
47514;DHT22;33951;51.988;5.910;2023-03-23T16:10:27;15.00;99.90
47514;DHT22;33951;51.988;5.910;2023-03-23T16:12:53;15.00;99.90
47514;DHT22;33951;51.988;5.910;2023-03-23T16:15:18;15.00;99.90
47514;DHT22;33951;51.988;5.910;2023-03-23T16:17:46;15.10;99.90
47514;DHT22;33951;51.988;5.910;2023-03-23T16:20:18;15.20;99.90
47514;DHT22;33951;51.988;5.910;2023-03-23T16:22:45;15.30;99.90
47514;DHT22;33951;51.988;5.910;2023-03-23T16:25:12;15.30;99.90
47514;DHT22;33951;51.988;5.910;2023-03-23T16:27:38;15.40;99.90
47514;DHT22;33951;51.988;5.910;2023-03-23T16:30:14;15.40;99.90
47514;DHT22;33951;51.988;5.910;2023-03-23T16:32:40;15.50;99.90
47514;DHT22;33951;51.988;5.910;2023-03-23T16:35:06;15.60;99.90
47514;DHT22;33951;51.988;5.910;2023-03-23T16:37:32;15.60;99.90
47514;DHT22;33951;51.988;5.910;2023-03-23T16:39:59;15.60;99.90
47514;DHT22;33951;51.988;5.910;2023-03-23T16:42:25;15.60;99.90
47514;DHT22;33951;51.988;5.910;2023-03-23T16:44:51;15.40;99.90
47514;DHT22;33951;51.988;5.910;2023-03-23T16:47:17;15.30;99.90
47514;DHT22;33951;51.988;5.910;2023-03-23T16:49:50;15.20;99.90
47514;DHT22;33951;51.988;5.910;2023-03-23T16:52:16;15.10;99.90
47514;DHT22;33951;51.988;5.910;2023-03-23T16:54:41;15.00;99.90
47514;DHT22;33951;51.988;5.910;2023-03-23T16:57:07;15.00;99.90
47514;DHT22;33951;51.988;5.910;2023-03-23T16:59:33;14.90;99.90
47514;DHT22;33951;51.988;5.910;2023-03-23T17:01:58;14.90;99.90
47514;DHT22;33951;51.988;5.910;2023-03-23T17:04:28;14.80;99.90
47514;DHT22;33951;51.988;5.910;2023-03-23T17:06:54;14.80;99.90
47514;DHT22;33951;51.988;5.910;2023-03-23T17:09:20;14.70;99.90
47514;DHT22;33951;51.988;5.910;2023-03-23T17:11:46;14.60;99.90
47514;DHT22;33951;51.988;5.910;2023-03-23T17:14:11;14.60;99.90
47514;DHT22;33951;51.988;5.910;2023-03-23T17:16:44;14.50;99.90
47514;DHT22;33951;51.988;5.910;2023-03-23T17:19:10;14.50;99.90
47514;DHT22;33951;51.988;5.910;2023-03-23T17:21:38;14.50;99.90
47514;DHT22;33951;51.988;5.910;2023-03-23T17:24:04;14.50;99.90
47514;DHT22;33951;51.988;5.910;2023-03-23T17:26:32;14.40;99.90
47514;DHT22;33951;51.988;5.910;2023-03-23T17:28:58;14.40;99.90
47514;DHT22;33951;51.988;5.910;2023-03-23T17:31:24;14.50;99.90
47514;DHT22;33951;51.988;5.910;2023-03-23T17:33:50;14.40;99.90
47514;DHT22;33951;51.988;5.910;2023-03-23T17:36:18;14.50;99.90
47514;DHT22;33951;51.988;5.910;2023-03-23T17:38:44;14.40;99.90
47514;DHT22;33951;51.988;5.910;2023-03-23T17:41:10;14.40;99.90
47514;DHT22;33951;51.988;5.910;2023-03-23T17:43:37;14.40;99.90
47514;DHT22;33951;51.988;5.910;2023-03-23T17:46:11;14.40;99.90
47514;DHT22;33951;51.988;5.910;2023-03-23T17:48:36;14.40;99.90
47514;DHT22;33951;51.988;5.910;2023-03-23T17:54:00;14.30;99.90
47514;DHT22;33951;51.988;5.910;2023-03-23T17:56:26;14.10;99.90
47514;DHT22;33951;51.988;5.910;2023-03-23T17:58:53;14.10;99.90
47514;DHT22;33951;51.988;5.910;2023-03-23T18:01:18;14.10;99.90
47514;DHT22;33951;51.988;5.910;2023-03-23T18:03:44;14.00;99.90
47514;DHT22;33951;51.988;5.910;2023-03-23T18:06:10;14.00;99.90
47514;DHT22;33951;51.988;5.910;2023-03-23T18:08:37;14.00;99.90
47514;DHT22;33951;51.988;5.910;2023-03-23T18:11:04;13.90;99.90
47514;DHT22;33951;51.988;5.910;2023-03-23T18:13:32;13.80;99.90
47514;DHT22;33951;51.988;5.910;2023-03-23T18:15:58;13.90;99.90
47514;DHT22;33951;51.988;5.910;2023-03-23T18:18:24;13.80;99.90
47514;DHT22;33951;51.988;5.910;2023-03-23T18:20:59;13.80;99.90
47514;DHT22;33951;51.988;5.910;2023-03-23T18:23:25;13.80;99.90
47514;DHT22;33951;51.988;5.910;2023-03-23T18:25:51;13.70;99.90
47514;DHT22;33951;51.988;5.910;2023-03-23T18:28:22;13.70;99.90
47514;DHT22;33951;51.988;5.910;2023-03-23T18:30:49;13.80;99.90
47514;DHT22;33951;51.988;5.910;2023-03-23T18:33:16;13.70;99.90
47514;DHT22;33951;51.988;5.910;2023-03-23T18:35:47;13.70;99.90
47514;DHT22;33951;51.988;5.910;2023-03-23T18:38:13;13.80;99.90
47514;DHT22;33951;51.988;5.910;2023-03-23T18:40:47;13.80;99.90
47514;DHT22;33951;51.988;5.910;2023-03-23T18:43:15;13.70;99.90
47514;DHT22;33951;51.988;5.910;2023-03-23T18:45:51;13.60;99.90
47514;DHT22;33951;51.988;5.910;2023-03-23T18:48:17;13.60;99.90
47514;DHT22;33951;51.988;5.910;2023-03-23T18:50:47;13.60;99.90
47514;DHT22;33951;51.988;5.910;2023-03-23T18:53:13;13.60;99.90
47514;DHT22;33951;51.988;5.910;2023-03-23T18:55:43;13.70;99.90
47514;DHT22;33951;51.988;5.910;2023-03-23T18:58:13;13.70;99.90
47514;DHT22;33951;51.988;5.910;2023-03-23T19:00:39;13.60;99.90
47514;DHT22;33951;51.988;5.910;2023-03-23T19:03:05;13.60;99.90
47514;DHT22;33951;51.988;5.910;2023-03-23T19:05:36;13.70;99.90
47514;DHT22;33951;51.988;5.910;2023-03-23T19:08:09;13.70;99.90
47514;DHT22;33951;51.988;5.910;2023-03-23T19:10:45;13.70;99.90
47514;DHT22;33951;51.988;5.910;2023-03-23T19:13:11;13.70;99.90
47514;DHT22;33951;51.988;5.910;2023-03-23T19:15:38;13.70;99.90
47514;DHT22;33951;51.988;5.910;2023-03-23T19:18:04;13.70;99.90
47514;DHT22;33951;51.988;5.910;2023-03-23T19:20:30;13.70;99.90
47514;DHT22;33951;51.988;5.910;2023-03-23T19:22:56;13.70;99.90
47514;DHT22;33951;51.988;5.910;2023-03-23T19:25:22;13.70;99.90
47514;DHT22;33951;51.988;5.910;2023-03-23T19:27:47;13.70;99.90
47514;DHT22;33951;51.988;5.910;2023-03-23T19:30:16;13.60;99.90
47514;DHT22;33951;51.988;5.910;2023-03-23T19:32:41;13.60;99.90
47514;DHT22;33951;51.988;5.910;2023-03-23T19:35:07;13.60;99.90
47514;DHT22;33951;51.988;5.910;2023-03-23T19:37:38;13.70;99.90
47514;DHT22;33951;51.988;5.910;2023-03-23T19:40:06;13.70;99.90
47514;DHT22;33951;51.988;5.910;2023-03-23T19:42:34;13.70;99.90
47514;DHT22;33951;51.988;5.910;2023-03-23T19:45:00;13.70;99.90
47514;DHT22;33951;51.988;5.910;2023-03-23T19:47:26;13.60;99.90
47514;DHT22;33951;51.988;5.910;2023-03-23T19:49:52;13.60;99.90
47514;DHT22;33951;51.988;5.910;2023-03-23T19:52:21;13.60;99.90
47514;DHT22;33951;51.988;5.910;2023-03-23T19:54:46;13.60;99.90
47514;DHT22;33951;51.988;5.910;2023-03-23T19:57:12;13.70;99.90
47514;DHT22;33951;51.988;5.910;2023-03-23T19:59:38;13.60;99.90
47514;DHT22;33951;51.988;5.910;2023-03-23T20:02:09;13.60;99.90
47514;DHT22;33951;51.988;5.910;2023-03-23T20:04:35;13.70;99.90
47514;DHT22;33951;51.988;5.910;2023-03-23T20:07:04;13.60;99.90
47514;DHT22;33951;51.988;5.910;2023-03-23T20:09:31;13.70;99.90
47514;DHT22;33951;51.988;5.910;2023-03-23T20:11:56;13.70;99.90
47514;DHT22;33951;51.988;5.910;2023-03-23T20:14:22;13.70;99.90
47514;DHT22;33951;51.988;5.910;2023-03-23T20:16:48;13.70;99.90
47514;DHT22;33951;51.988;5.910;2023-03-23T20:19:13;13.80;99.90
47514;DHT22;33951;51.988;5.910;2023-03-23T20:21:41;13.80;99.90
47514;DHT22;33951;51.988;5.910;2023-03-23T20:24:06;13.80;99.90
47514;DHT22;33951;51.988;5.910;2023-03-23T20:26:36;13.80;99.90
47514;DHT22;33951;51.988;5.910;2023-03-23T20:29:02;13.80;99.90
47514;DHT22;33951;51.988;5.910;2023-03-23T20:31:30;13.70;99.90
47514;DHT22;33951;51.988;5.910;2023-03-23T20:34:00;13.70;99.90
47514;DHT22;33951;51.988;5.910;2023-03-23T20:36:38;13.60;99.90
47514;DHT22;33951;51.988;5.910;2023-03-23T20:39:08;13.60;99.90
47514;DHT22;33951;51.988;5.910;2023-03-23T20:41:34;13.50;99.90
47514;DHT22;33951;51.988;5.910;2023-03-23T20:44:00;13.40;99.90
47514;DHT22;33951;51.988;5.910;2023-03-23T20:46:27;13.30;99.90
47514;DHT22;33951;51.988;5.910;2023-03-23T20:48:52;13.20;99.90
47514;DHT22;33951;51.988;5.910;2023-03-23T20:51:21;13.10;99.90
47514;DHT22;33951;51.988;5.910;2023-03-23T20:53:47;13.00;99.90
47514;DHT22;33951;51.988;5.910;2023-03-23T20:56:15;12.90;99.90
47514;DHT22;33951;51.988;5.910;2023-03-23T20:58:40;13.00;99.90